Time;durP1;ratioP1;P1;durP2;ratioP2;P2;SDS_P1;SDS_P2;PMS_P1;PMS_P2;Temp;Humidity;BMP_temperature;BMP_pressure;BME280_temperature;BME280_humidity;BME280_pressure;Samples;Min_cycle;Max_cycle;Signal;HPM_P1;HPM_P2
2023/10/18 00:01:04;;;;;;;82.83;41.17;;;;;;;;;;10490055;28;20020;-83
2023/10/18 00:06:16;;;;;;;96.37;46.87;;;;;;;;;;10490229;28;20112;-81
2023/10/18 00:11:17;;;;;;;82.80;39.50;;;;;;;;;;10501119;28;20044;-81
2023/10/18 00:16:18;;;;;;;74.43;37.50;;;;;;;;;;10489901;28;20101;-81
2023/10/18 00:21:19;;;;;;;71.50;36.93;;;;;;;;;;10494134;28;20110;-82
2023/10/18 00:26:20;;;;;;;95.17;46.60;;;;;;;;;;10493690;28;20068;-82
2023/10/18 00:31:21;;;;;;;86.50;42.20;;;;;;;;;;10488351;28;20086;-82
2023/10/18 00:36:30;;;;;;;95.30;48.80;;;;;;;;;;10488703;28;20082;-82
2023/10/18 00:41:34;;;;;;;104.40;49.53;;;;;;;;;;10492066;28;20028;-82
2023/10/18 00:46:38;;;;;;;94.00;48.57;;;;;;;;;;10487621;28;20440;-81
2023/10/18 00:51:39;;;;;;;77.37;40.60;;;;;;;;;;10499149;28;20036;-83
2023/10/18 00:56:41;;;;;;;90.70;45.47;;;;;;;;;;10491393;28;20027;-81
2023/10/18 01:01:44;;;;;;;90.53;44.90;;;;;;;;;;10487790;28;20040;-81
2023/10/18 01:06:50;;;;;;;89.87;46.90;;;;;;;;;;10486944;28;20510;-81
2023/10/18 01:11:52;;;;;;;;;;;;;;;;;;10504142;28;20384;-81
2023/10/18 01:16:56;;;;;;;87.93;43.07;;;;;;;;;;10486636;28;19908;-83
2023/10/18 01:21:57;;;;;;;86.40;45.10;;;;;;;;;;10493323;28;20143;-81
2023/10/18 01:26:58;;;;;;;85.07;43.70;;;;;;;;;;10490094;28;20525;-81
2023/10/18 01:31:59;;;;;;;100.57;50.63;;;;;;;;;;10472242;28;20039;-81
2023/10/18 01:37:00;;;;;;;85.20;42.33;;;;;;;;;;10487614;28;20035;-81
2023/10/18 01:42:02;;;;;;;89.80;44.57;;;;;;;;;;10492497;28;20830;-81
2023/10/18 01:47:06;;;;;;;75.73;41.03;;;;;;;;;;10498983;28;20083;-83
2023/10/18 01:52:08;;;;;;;82.23;39.87;;;;;;;;;;10479913;28;20040;-81
2023/10/18 01:57:11;;;;;;;86.47;45.90;;;;;;;;;;10489404;28;20035;-81
2023/10/18 02:02:15;;;;;;;75.63;39.47;;;;;;;;;;10489700;28;20032;-81
2023/10/18 02:07:19;;;;;;;92.00;48.20;;;;;;;;;;10486726;28;20036;-82
2023/10/18 02:12:20;;;;;;;92.17;47.53;;;;;;;;;;10498403;28;20024;-81
2023/10/18 02:17:21;;;;;;;95.90;49.30;;;;;;;;;;10484903;28;20085;-81
2023/10/18 02:22:22;;;;;;;78.37;38.97;;;;;;;;;;10494934;28;20028;-81
2023/10/18 02:27:24;;;;;;;99.30;49.00;;;;;;;;;;10497094;28;20683;-81
2023/10/18 02:32:38;;;;;;;94.37;46.53;;;;;;;;;;10486456;28;20044;-81
2023/10/18 02:37:39;;;;;;;78.40;41.57;;;;;;;;;;10492993;28;20067;-81
2023/10/18 02:42:41;;;;;;;85.30;45.47;;;;;;;;;;10493534;28;20044;-81
2023/10/18 02:47:42;;;;;;;99.27;51.37;;;;;;;;;;10505782;28;20044;-83
2023/10/18 02:52:45;;;;;;;82.97;44.77;;;;;;;;;;10496359;28;20040;-81
2023/10/18 02:57:47;;;;;;;89.63;49.33;;;;;;;;;;10501800;28;20040;-80
2023/10/18 03:02:49;;;;;;;72.40;38.30;;;;;;;;;;10500827;28;20032;-81
2023/10/18 03:07:50;;;;;;;89.67;47.77;;;;;;;;;;10501375;28;20055;-81
2023/10/18 03:12:52;;;;;;;98.37;50.10;;;;;;;;;;10504030;28;20029;-81
2023/10/18 03:17:56;;;;;;;83.53;41.70;;;;;;;;;;10491009;28;20107;-81
2023/10/18 03:23:02;;;;;;;76.00;38.87;;;;;;;;;;10503791;28;20055;-80
2023/10/18 03:28:13;;;;;;;85.13;45.30;;;;;;;;;;10496575;28;20083;-83
2023/10/18 03:33:14;;;;;;;80.07;40.87;;;;;;;;;;10500157;28;20032;-83
2023/10/18 03:38:18;;;;;;;88.33;45.43;;;;;;;;;;10495295;28;20024;-80
2023/10/18 03:43:32;;;;;;;83.73;42.87;;;;;;;;;;10489830;28;20040;-83
2023/10/18 03:48:39;;;;;;;88.53;46.30;;;;;;;;;;10494214;28;20044;-87
2023/10/18 03:53:41;;;;;;;119.27;55.10;;;;;;;;;;10471115;28;20155;-77
2023/10/18 03:58:48;;;;;;;125.20;56.40;;;;;;;;;;10503757;28;20656;-82
2023/10/18 04:03:49;;;;;;;97.27;47.53;;;;;;;;;;10489911;28;20028;-82
2023/10/18 04:08:50;;;;;;;121.00;55.73;;;;;;;;;;10501951;28;20093;-84
2023/10/18 04:13:52;;;;;;;95.63;43.80;;;;;;;;;;10501365;28;20480;-84
2023/10/18 04:18:56;;;;;;;99.60;48.07;;;;;;;;;;10489482;28;20040;-82
2023/10/18 04:23:57;;;;;;;110.30;48.93;;;;;;;;;;10497078;28;20028;-82
2023/10/18 04:29:01;;;;;;;103.73;49.37;;;;;;;;;;10504746;28;20052;-82
2023/10/18 04:34:03;;;;;;;116.20;51.80;;;;;;;;;;10500094;28;20039;-81
2023/10/18 04:39:08;;;;;;;119.90;59.40;;;;;;;;;;10489429;28;20078;-83
2023/10/18 04:44:23;;;;;;;134.83;66.13;;;;;;;;;;10455442;28;20048;-81
2023/10/18 04:49:36;;;;;;;149.85;71.18;;;;;;;;;;10491016;28;20093;-82
2023/10/18 04:54:41;;;;;;;122.70;67.43;;;;;;;;;;10487745;28;20028;-81
2023/10/18 04:59:45;;;;;;;134.03;61.33;;;;;;;;;;10487379;28;20028;-80
2023/10/18 05:04:46;;;;;;;140.33;64.07;;;;;;;;;;10495550;28;20245;-81
2023/10/18 05:09:55;;;;;;;160.70;67.47;;;;;;;;;;10486839;28;20463;-82
2023/10/18 05:20:46;;;;;;;145.00;62.07;;;;;;;;;;10486575;28;20041;-81
2023/10/18 05:25:34;;;;;;;156.07;63.60;;;;;;;;;;10485066;28;20728;-82
2023/10/18 05:36:10;;;;;;;262.47;76.87;;;;;;;;;;10538704;28;20039;-82
2023/10/18 05:46:35;;;;;;;175.98;65.40;;;;;;;;;;10529323;28;20051;-81
2023/10/18 05:51:38;;;;;;;168.47;68.00;;;;;;;;;;10536871;28;20032;-81
2023/10/18 05:56:39;;;;;;;163.50;63.53;;;;;;;;;;10533205;28;20024;-82
2023/10/18 06:01:40;;;;;;;135.27;60.90;;;;;;;;;;10535897;28;20106;-81
2023/10/18 06:06:43;;;;;;;145.80;60.97;;;;;;;;;;10535790;28;20437;-83
2023/10/18 06:11:48;;;;;;;148.50;61.97;;;;;;;;;;10528027;28;20032;-81
2023/10/18 06:16:51;;;;;;;199.37;88.50;;;;;;;;;;10536459;28;20039;-81
2023/10/18 06:21:58;;;;;;;154.80;66.03;;;;;;;;;;10528428;28;20036;-80
2023/10/18 06:26:59;;;;;;;149.90;60.53;;;;;;;;;;10529811;28;20519;-81
2023/10/18 06:32:06;;;;;;;126.40;57.30;;;;;;;;;;10535155;28;20030;-81
2023/10/18 06:37:20;;;;;;;140.53;61.37;;;;;;;;;;10534665;28;20036;-80
2023/10/18 06:42:26;;;;;;;177.17;71.80;;;;;;;;;;10545360;28;20053;-80
2023/10/18 06:47:31;;;;;;;171.90;71.73;;;;;;;;;;10534926;28;20067;-81
2023/10/18 06:52:44;;;;;;;145.70;59.20;;;;;;;;;;10527557;28;20365;-80
2023/10/18 06:57:49;;;;;;;233.23;71.83;;;;;;;;;;10538064;28;20047;-81
2023/10/18 07:02:50;;;;;;;132.52;56.40;;;;;;;;;;10528977;28;20106;-80
2023/10/18 07:07:52;;;;;;;157.67;63.60;;;;;;;;;;10525607;28;20066;-80
2023/10/18 07:12:55;;;;;;;168.00;63.23;;;;;;;;;;10537851;28;20034;-80
2023/10/18 07:18:09;;;;;;;138.17;57.17;;;;;;;;;;10527121;28;20036;-81
2023/10/18 07:23:20;;;;;;;140.73;56.57;;;;;;;;;;10540339;28;20036;-80
2023/10/18 07:28:21;;;;;;;128.50;50.13;;;;;;;;;;10530904;28;20062;-80
2023/10/18 07:33:23;;;;;;;246.27;71.40;;;;;;;;;;10547592;28;20361;-80
2023/10/18 07:38:27;;;;;;;96.93;46.33;;;;;;;;;;10532505;28;20027;-82
2023/10/18 07:43:29;;;;;;;99.90;50.40;;;;;;;;;;10540030;28;20062;-80
2023/10/18 07:48:30;;;;;;;97.07;45.97;;;;;;;;;;10548249;28;20036;-80
2023/10/18 07:53:31;;;;;;;111.07;51.37;;;;;;;;;;10537696;28;20028;-80
2023/10/18 07:58:33;;;;;;;172.20;59.63;;;;;;;;;;10532422;28;20069;-80
2023/10/18 08:03:35;;;;;;;99.00;50.20;;;;;;;;;;10535041;28;20040;-81
2023/10/18 08:08:36;;;;;;;99.90;48.73;;;;;;;;;;10531275;28;20039;-80
2023/10/18 08:13:45;;;;;;;104.50;52.07;;;;;;;;;;10532740;28;20028;-80
2023/10/18 08:18:52;;;;;;;110.80;55.80;;;;;;;;;;10539926;28;20035;-79
2023/10/18 08:23:57;;;;;;;96.07;50.40;;;;;;;;;;10542161;28;20042;-80
2023/10/18 08:28:59;;;;;;;94.00;45.77;;;;;;;;;;10509261;28;20056;-80
2023/10/18 08:34:15;;;;;;;87.43;44.43;;;;;;;;;;10529076;28;20036;-79
2023/10/18 08:39:16;;;;;;;92.53;45.65;;;;;;;;;;10535481;28;20201;-81
2023/10/18 08:44:21;;;;;;;84.57;46.07;;;;;;;;;;10531129;28;20067;-79
2023/10/18 08:49:23;;;;;;;81.05;43.78;;;;;;;;;;10530278;28;20142;-79
2023/10/18 08:54:30;;;;;;;81.13;43.17;;;;;;;;;;10529180;28;20051;-79
2023/10/18 08:59:39;;;;;;;73.83;42.60;;;;;;;;;;10529145;28;20028;-80
2023/10/18 09:04:44;;;;;;;68.17;40.37;;;;;;;;;;10529459;28;20031;-80
2023/10/18 09:10:13;;;;;;;65.83;38.13;;;;;;;;;;10531845;28;20486;-80
2023/10/18 09:20:47;;;;;;;49.27;30.17;;;;;;;;;;10498541;28;20044;-80
2023/10/18 09:26:35;;;;;;;35.92;20.17;;;;;;;;;;10543478;28;20124;-81
2023/10/18 09:31:16;;;;;;;41.03;25.13;;;;;;;;;;10482808;28;20048;-79
2023/10/18 09:36:19;;;;;;;37.72;24.63;;;;;;;;;;10489982;28;20525;-78
2023/10/18 09:41:21;;;;;;;34.00;19.98;;;;;;;;;;10485646;28;20163;-79
2023/10/18 09:46:22;;;;;;;27.00;17.33;;;;;;;;;;10485693;28;20073;-80
2023/10/18 09:51:23;;;;;;;26.08;16.05;;;;;;;;;;10485788;28;20056;-79
2023/10/18 09:56:33;;;;;;;25.63;15.98;;;;;;;;;;10467816;28;20055;-80
2023/10/18 10:06:48;;;;;;;29.08;16.73;;;;;;;;;;10486541;28;20129;-78
2023/10/18 10:11:49;;;;;;;28.75;17.40;;;;;;;;;;10484784;28;20119;-78
2023/10/18 10:16:56;;;;;;;26.73;15.55;;;;;;;;;;10493854;28;20036;-79
2023/10/18 10:22:04;;;;;;;23.67;14.32;;;;;;;;;;10492350;28;20027;-79
2023/10/18 10:32:34;;;;;;;29.13;16.00;;;;;;;;;;10490132;28;20040;-81
2023/10/18 10:37:45;;;;;;;14.48;9.02;;;;;;;;;;10484955;28;20040;-82
2023/10/18 10:42:47;;;;;;;17.05;9.43;;;;;;;;;;10483754;28;20044;-79
2023/10/18 10:47:50;;;;;;;22.08;11.52;;;;;;;;;;10485355;28;20076;-81
2023/10/18 10:52:51;;;;;;;16.80;9.77;;;;;;;;;;10488418;28;20051;-81
2023/10/18 10:57:52;;;;;;;20.27;11.35;;;;;;;;;;10492954;28;20037;-81
2023/10/18 11:02:54;;;;;;;18.58;10.80;;;;;;;;;;10492170;28;20029;-80
2023/10/18 11:07:57;;;;;;;20.98;11.82;;;;;;;;;;10502962;28;20040;-79
2023/10/18 11:12:59;;;;;;;19.73;11.30;;;;;;;;;;10491793;28;20046;-80
2023/10/18 11:18:09;;;;;;;14.27;8.43;;;;;;;;;;10491810;28;20028;-84
2023/10/18 11:23:10;;;;;;;15.85;8.95;;;;;;;;;;10504626;28;20025;-80
2023/10/18 11:28:28;;;;;;;14.65;8.50;;;;;;;;;;10491786;28;20451;-80
2023/10/18 11:33:36;;;;;;;19.75;9.75;;;;;;;;;;10490857;28;20024;-80
2023/10/18 11:38:37;;;;;;;15.80;7.55;;;;;;;;;;10501406;28;20550;-79
2023/10/18 11:43:40;;;;;;;10.80;7.22;;;;;;;;;;10506055;28;20020;-79
2023/10/18 11:48:54;;;;;;;15.13;7.60;;;;;;;;;;10502284;28;20127;-80
2023/10/18 11:53:55;;;;;;;14.55;8.13;;;;;;;;;;10493107;28;20029;-80
2023/10/18 11:59:00;;;;;;;14.95;8.63;;;;;;;;;;10501274;28;20390;-79
2023/10/18 12:04:03;;;;;;;13.52;8.15;;;;;;;;;;10471320;28;20048;-79
2023/10/18 12:14:15;;;;;;;35.15;29.65;;;;;;;;;;10489510;28;20531;-80
2023/10/18 12:19:16;;;;;;;16.38;10.25;;;;;;;;;;10496866;28;20032;-82
2023/10/18 12:24:18;;;;;;;40.35;19.77;;;;;;;;;;10491921;28;20130;-78
2023/10/18 12:29:20;;;;;;;19.83;12.20;;;;;;;;;;10488288;28;20056;-82
2023/10/18 12:34:30;;;;;;;18.23;11.35;;;;;;;;;;10500230;28;20606;-78
2023/10/18 12:39:35;;;;;;;18.30;10.10;;;;;;;;;;10497811;28;20032;-79
2023/10/18 12:44:39;;;;;;;18.13;10.38;;;;;;;;;;10501231;28;20067;-81
2023/10/18 12:49:44;;;;;;;17.77;9.77;;;;;;;;;;10488098;28;20047;-79
2023/10/18 12:54:51;;;;;;;15.68;9.27;;;;;;;;;;10470042;28;20158;-80
2023/10/18 13:04:59;;;;;;;14.43;7.70;;;;;;;;;;10491213;28;20044;-82
2023/10/18 13:10:00;;;;;;;22.52;13.32;;;;;;;;;;10490997;28;20043;-78
2023/10/18 13:15:01;;;;;;;12.75;7.93;;;;;;;;;;10493260;28;20400;-79
2023/10/18 13:20:06;;;;;;;14.50;8.38;;;;;;;;;;10502347;28;20040;-80
2023/10/18 13:30:51;;;;;;;18.92;11.38;;;;;;;;;;10488509;28;20121;-79
2023/10/18 13:35:53;;;;;;;24.00;14.80;;;;;;;;;;10496432;28;20101;-80
2023/10/18 13:40:55;;;;;;;16.02;9.95;;;;;;;;;;10495928;28;20602;-80
2023/10/18 13:45:57;;;;;;;20.30;10.80;;;;;;;;;;10499175;28;20749;-80
2023/10/18 13:51:02;;;;;;;30.10;15.02;;;;;;;;;;10494547;28;20027;-81
2023/10/18 13:56:03;;;;;;;12.77;7.60;;;;;;;;;;10497642;28;20024;-80
2023/10/18 14:01:05;;;;;;;14.95;8.52;;;;;;;;;;10499630;28;20025;-79
2023/10/18 14:06:08;;;;;;;19.10;8.77;;;;;;;;;;10494699;28;20037;-80
2023/10/18 14:11:14;;;;;;;13.20;7.13;;;;;;;;;;10490416;28;20028;-79
2023/10/18 14:16:16;;;;;;;16.23;7.68;;;;;;;;;;10488961;28;20212;-79
2023/10/18 14:21:19;;;;;;;10.52;6.53;;;;;;;;;;10497900;28;20058;-79
2023/10/18 14:26:24;;;;;;;9.88;5.72;;;;;;;;;;10486553;28;20066;-79
2023/10/18 14:31:32;;;;;;;16.98;9.02;;;;;;;;;;10506243;28;20072;-79
2023/10/18 14:36:33;;;;;;;13.00;6.30;;;;;;;;;;10497373;28;20542;-79
2023/10/18 14:41:34;;;;;;;13.73;6.70;;;;;;;;;;10512762;28;20032;-80
2023/10/18 14:46:37;;;;;;;15.20;8.05;;;;;;;;;;10493308;28;20396;-80
2023/10/18 14:51:43;;;;;;;12.00;6.55;;;;;;;;;;10503454;28;20028;-80
2023/10/18 14:56:45;;;;;;;24.27;13.48;;;;;;;;;;10512761;28;20029;-79
2023/10/18 15:01:45;;;;;;;18.17;8.88;;;;;;;;;;10506371;28;20024;-79
2023/10/18 15:06:46;;;;;;;18.77;7.57;;;;;;;;;;10502962;28;20053;-81
2023/10/18 15:11:49;;;;;;;14.48;6.70;;;;;;;;;;10495988;28;20032;-78
2023/10/18 15:16:50;;;;;;;13.35;6.80;;;;;;;;;;10511071;28;20042;-79
2023/10/18 15:21:51;;;;;;;14.95;6.63;;;;;;;;;;10499707;28;20036;-79
2023/10/18 15:26:55;;;;;;;13.70;7.50;;;;;;;;;;10514681;28;20507;-79
2023/10/18 15:31:56;;;;;;;28.27;14.93;;;;;;;;;;10492363;28;20048;-80
2023/10/18 15:36:57;;;;;;;51.57;24.73;;;;;;;;;;10486277;28;20292;-80
2023/10/18 15:41:58;;;;;;;162.90;74.17;;;;;;;;;;10491554;28;20028;-79
2023/10/18 15:47:03;;;;;;;151.70;68.27;;;;;;;;;;10486547;28;20090;-78
2023/10/18 15:52:07;;;;;;;;;;;;;;;;;;10488206;28;20059;-79
2023/10/18 15:57:10;;;;;;;33.57;14.90;;;;;;;;;;10505024;28;20006;-81
2023/10/18 16:02:17;;;;;;;27.60;12.57;;;;;;;;;;10510816;28;20055;-78
2023/10/18 16:07:18;;;;;;;31.00;14.03;;;;;;;;;;10527413;28;20048;-79
2023/10/18 16:12:19;;;;;;;52.80;23.07;;;;;;;;;;10491797;28;20028;-78
2023/10/18 16:17:20;;;;;;;44.50;21.20;;;;;;;;;;10501073;28;20025;-82
2023/10/18 16:22:21;;;;;;;47.90;23.00;;;;;;;;;;10498312;28;20040;-80
2023/10/18 16:27:22;;;;;;;45.37;21.07;;;;;;;;;;10490668;28;20055;-79
2023/10/18 16:32:23;;;;;;;51.47;23.53;;;;;;;;;;10506253;28;20074;-81
2023/10/18 16:37:24;;;;;;;44.90;21.33;;;;;;;;;;10505077;28;20481;-80
2023/10/18 16:42:25;;;;;;;44.50;21.87;;;;;;;;;;10491241;28;20033;-80
2023/10/18 16:47:26;;;;;;;41.60;19.70;;;;;;;;;;10493374;28;20511;-80
2023/10/18 16:52:27;;;;;;;51.30;22.90;;;;;;;;;;10504024;28;20127;-80
2023/10/18 16:57:28;;;;;;;42.23;20.57;;;;;;;;;;10488389;28;20426;-80
2023/10/18 17:02:29;;;;;;;30.23;15.30;;;;;;;;;;10500885;28;20029;-82
2023/10/18 17:07:30;;;;;;;34.40;16.73;;;;;;;;;;10497690;28;20519;-83
2023/10/18 17:12:31;;;;;;;40.13;19.57;;;;;;;;;;10481631;23;20065;-82
2023/10/18 17:17:33;;;;;;;41.97;21.07;;;;;;;;;;10441276;28;20029;-82
2023/10/18 17:22:34;;;;;;;45.27;22.40;;;;;;;;;;10437979;28;20037;-83
2023/10/18 17:27:35;;;;;;;48.83;22.60;;;;;;;;;;10444954;28;20115;-82
2023/10/18 17:32:39;;;;;;;55.47;28.63;;;;;;;;;;10417822;28;20037;-82
2023/10/18 17:37:44;;;;;;;53.07;28.47;;;;;;;;;;10443803;28;20090;-82
2023/10/18 17:42:46;;;;;;;60.93;29.23;;;;;;;;;;10442085;28;20462;-81
2023/10/18 17:47:47;;;;;;;81.50;40.13;;;;;;;;;;10429050;28;20102;-80
2023/10/18 17:52:50;;;;;;;63.67;33.20;;;;;;;;;;10435872;28;20060;-82
2023/10/18 17:57:58;;;;;;;75.57;35.33;;;;;;;;;;10436071;28;20040;-80
2023/10/18 18:03:00;;;;;;;79.83;37.27;;;;;;;;;;10440431;28;20040;-81
2023/10/18 18:08:06;;;;;;;55.53;28.87;;;;;;;;;;10440809;28;20527;-80
2023/10/18 18:13:07;;;;;;;89.80;43.57;;;;;;;;;;10467228;28;20059;-81
2023/10/18 18:18:10;;;;;;;80.27;37.80;;;;;;;;;;10481202;28;20570;-80
2023/10/18 18:23:12;;;;;;;82.70;40.23;;;;;;;;;;10476265;28;20029;-80
2023/10/18 18:28:13;;;;;;;82.53;39.90;;;;;;;;;;10479115;28;20662;-81
2023/10/18 18:33:14;;;;;;;72.53;36.07;;;;;;;;;;10481879;28;20123;-79
2023/10/18 18:38:15;;;;;;;75.67;38.50;;;;;;;;;;10474698;28;20033;-80
2023/10/18 18:43:23;;;;;;;81.60;38.47;;;;;;;;;;10483401;28;20082;-78
2023/10/18 18:48:24;;;;;;;84.50;42.13;;;;;;;;;;10479737;28;20554;-81
2023/10/18 18:53:25;;;;;;;68.33;35.60;;;;;;;;;;10480165;28;20107;-82
2023/10/18 18:58:31;;;;;;;78.93;42.57;;;;;;;;;;10480548;28;20043;-81
2023/10/18 19:03:34;;;;;;;103.75;50.97;;;;;;;;;;10474088;28;20098;-82
2023/10/18 19:08:35;;;;;;;109.13;53.50;;;;;;;;;;10482371;28;20040;-80
2023/10/18 19:13:36;;;;;;;85.63;44.93;;;;;;;;;;10480489;28;20412;-80
2023/10/18 19:18:37;;;;;;;78.47;36.73;;;;;;;;;;10488099;28;20017;-80
2023/10/18 19:23:40;;;;;;;76.50;38.20;;;;;;;;;;10481608;28;20033;-80
2023/10/18 19:28:41;;;;;;;73.00;33.97;;;;;;;;;;10487979;28;20613;-79
2023/10/18 19:33:52;;;;;;;76.43;37.20;;;;;;;;;;10488501;28;20024;-80
2023/10/18 19:39:01;;;;;;;84.40;40.13;;;;;;;;;;10489123;28;20036;-81
2023/10/18 19:44:04;;;;;;;84.80;40.70;;;;;;;;;;10487098;28;20440;-81
2023/10/18 19:49:05;;;;;;;70.20;36.43;;;;;;;;;;10473215;28;20076;-81
2023/10/18 19:54:06;;;;;;;81.17;40.47;;;;;;;;;;10463451;28;20059;-81
2023/10/18 19:59:07;;;;;;;76.40;33.93;;;;;;;;;;10489018;28;20031;-80
2023/10/18 20:04:08;;;;;;;74.87;37.53;;;;;;;;;;10488096;28;20629;-80
2023/10/18 20:09:09;;;;;;;63.93;32.13;;;;;;;;;;10488726;28;20040;-81
2023/10/18 20:14:11;;;;;;;71.83;35.43;;;;;;;;;;10486321;28;20060;-80
2023/10/18 20:19:13;;;;;;;64.17;32.47;;;;;;;;;;10469563;28;20107;-81
2023/10/18 20:24:14;;;;;;;71.57;36.53;;;;;;;;;;10487080;28;20028;-81
2023/10/18 20:29:15;;;;;;;74.27;37.07;;;;;;;;;;10487104;28;20051;-80
2023/10/18 20:34:17;;;;;;;59.67;29.80;;;;;;;;;;10499057;22;20024;-81
2023/10/18 20:39:19;;;;;;;79.40;41.40;;;;;;;;;;10488047;28;20085;-81
2023/10/18 20:44:40;;;;;;;73.57;38.63;;;;;;;;;;10487707;28;20122;-80
2023/10/18 20:49:49;;;;;;;78.20;38.97;;;;;;;;;;10467346;28;20053;-81
2023/10/18 20:54:53;;;;;;;63.87;33.00;;;;;;;;;;10484585;28;20432;-81
2023/10/18 20:59:57;;;;;;;76.77;38.17;;;;;;;;;;10487101;28;20044;-81
2023/10/18 21:04:58;;;;;;;64.30;33.23;;;;;;;;;;10486756;28;20039;-82
2023/10/18 21:09:59;;;;;;;68.33;34.83;;;;;;;;;;10485240;28;20040;-80
2023/10/18 21:15:00;;;;;;;70.83;35.53;;;;;;;;;;10485784;28;20039;-80
2023/10/18 21:20:11;;;;;;;75.57;38.17;;;;;;;;;;10484432;28;20040;-81
2023/10/18 21:25:13;;;;;;;69.30;35.57;;;;;;;;;;10486101;28;20044;-80
2023/10/18 21:30:15;;;;;;;65.03;31.50;;;;;;;;;;10488852;28;20044;-82
2023/10/18 21:35:16;;;;;;;54.27;27.30;;;;;;;;;;10526223;28;20067;-81
2023/10/18 21:40:20;;;;;;;70.53;33.30;;;;;;;;;;10525911;28;20055;-81
2023/10/18 21:45:21;;;;;;;56.53;29.40;;;;;;;;;;10525886;28;20032;-82
2023/10/18 21:50:22;;;;;;;67.87;34.53;;;;;;;;;;10526324;28;20028;-80
2023/10/18 21:55:24;;;;;;;72.83;36.40;;;;;;;;;;10525511;28;20043;-81
2023/10/18 22:00:38;;;;;;;69.07;35.23;;;;;;;;;;10524988;28;20032;-80
2023/10/18 22:05:42;;;;;;;69.17;35.03;;;;;;;;;;10525778;28;20101;-80
2023/10/18 22:10:47;;;;;;;65.67;31.67;;;;;;;;;;10526274;28;20059;-82
2023/10/18 22:15:56;;;;;;;63.87;29.93;;;;;;;;;;10525710;28;20115;-81
2023/10/18 22:20:59;;;;;;;65.93;32.13;;;;;;;;;;10512820;28;20042;-83
2023/10/18 22:26:04;;;;;;;70.67;35.60;;;;;;;;;;10525773;28;20081;-80
2023/10/18 22:31:08;;;;;;;72.10;33.60;;;;;;;;;;10525277;28;20429;-81
2023/10/18 22:36:12;;;;;;;62.07;31.30;;;;;;;;;;10523997;28;20060;-81
2023/10/18 22:41:32;;;;;;;64.27;32.83;;;;;;;;;;10525086;28;20036;-80
2023/10/18 22:46:33;;;;;;;63.83;29.50;;;;;;;;;;10505916;28;20063;-81
2023/10/18 22:51:35;;;;;;;72.30;34.57;;;;;;;;;;10530371;28;20055;-82
2023/10/18 23:01:50;;;;;;;61.20;32.43;;;;;;;;;;10532014;28;20422;-81
2023/10/18 23:06:55;;;;;;;57.20;27.83;;;;;;;;;;10533162;28;20032;-81
2023/10/18 23:11:57;;;;;;;52.40;25.00;;;;;;;;;;10520343;28;20020;-81
2023/10/18 23:22:19;;;;;;;51.73;25.37;;;;;;;;;;10526291;28;20036;-80
2023/10/18 23:32:57;;;;;;;56.93;28.73;;;;;;;;;;10531532;28;20040;-81
2023/10/18 23:38:09;;;;;;;60.60;29.37;;;;;;;;;;10529330;28;20145;-83
2023/10/18 23:49:12;;;;;;;55.43;29.53;;;;;;;;;;10520563;28;20462;-80
2023/10/18 23:54:04;;;;;;;59.70;28.73;;;;;;;;;;10528668;28;20079;-80
2023/10/18 23:59:06;;;;;;;64.40;31.50;;;;;;;;;;10519152;28;20119;-80
